Time;durP1;ratioP1;P1;durP2;ratioP2;P2;SDS_P1;SDS_P2;PMS_P1;PMS_P2;Temp;Humidity;BMP_temperature;BMP_pressure;BME280_temperature;BME280_humidity;BME280_pressure;Samples;Min_cycle;Max_cycle;Signal;HPM_P1;HPM_P2
2022/11/19 00:01:17;;;;;;;13.25;8.32;;;;;;;;;;5088056;28;20766;-74
2022/11/19 00:03:43;;;;;;;13.40;8.45;;;;;;;;;;5089063;28;20060;-74
2022/11/19 00:06:10;;;;;;;15.02;9.63;;;;;;;;;;5085398;28;20094;-74
2022/11/19 00:08:36;;;;;;;25.27;12.60;;;;;;;;;;5085435;28;20033;-74
2022/11/19 00:11:10;;;;;;;24.30;12.95;;;;;;;;;;5084621;28;20036;-74
2022/11/19 00:13:37;;;;;;;17.30;11.00;;;;;;;;;;5084520;28;20029;-74
2022/11/19 00:16:08;;;;;;;17.48;8.50;;;;;;;;;;5082257;28;20036;-74
2022/11/19 00:18:34;;;;;;;23.50;8.43;;;;;;;;;;5084615;28;20032;-74
2022/11/19 00:21:04;;;;;;;12.30;6.93;;;;;;;;;;5084950;28;20044;-74
2022/11/19 00:23:30;;;;;;;13.02;7.80;;;;;;;;;;5089146;28;20035;-74
2022/11/19 00:25:56;;;;;;;24.52;11.85;;;;;;;;;;5079138;28;20036;-74
2022/11/19 00:28:22;;;;;;;30.80;16.23;;;;;;;;;;5081923;28;20570;-74
2022/11/19 00:30:48;;;;;;;19.77;10.80;;;;;;;;;;5085959;28;20036;-74
2022/11/19 00:33:14;;;;;;;18.02;9.95;;;;;;;;;;5093179;28;20456;-74
2022/11/19 00:35:40;;;;;;;17.20;9.43;;;;;;;;;;5088203;28;20077;-74
2022/11/19 00:38:06;;;;;;;18.50;8.85;;;;;;;;;;5092550;28;20047;-74
2022/11/19 00:40:32;;;;;;;12.45;7.82;;;;;;;;;;5081182;28;20028;-74
2022/11/19 00:45:43;;;;;;;31.30;17.55;;;;;;;;;;5078700;28;20486;-74
2022/11/19 00:48:09;;;;;;;34.92;20.25;;;;;;;;;;5089322;28;20028;-74
2022/11/19 00:50:35;;;;;;;35.03;18.15;;;;;;;;;;5074248;28;20036;-74
2022/11/19 00:53:01;;;;;;;35.30;18.30;;;;;;;;;;5087455;28;20036;-74
2022/11/19 00:55:27;;;;;;;35.78;14.93;;;;;;;;;;5081982;28;20036;-74
2022/11/19 00:57:53;;;;;;;18.48;9.85;;;;;;;;;;5086724;28;20077;-74
2022/11/19 01:00:19;;;;;;;16.75;8.25;;;;;;;;;;5085790;28;20037;-74
2022/11/19 01:02:45;;;;;;;13.05;7.60;;;;;;;;;;5077742;28;20086;-74
2022/11/19 01:05:11;;;;;;;12.38;7.65;;;;;;;;;;5081698;28;20039;-74
2022/11/19 01:07:37;;;;;;;11.07;7.15;;;;;;;;;;5080542;28;20595;-74
2022/11/19 01:10:03;;;;;;;13.05;7.70;;;;;;;;;;5096189;28;20039;-74
2022/11/19 01:13:33;;;;;;;22.13;12.18;;;;;;;;;;5077481;28;20828;-74
2022/11/19 01:15:15;;;;;;;17.90;10.32;;;;;;;;;;5080887;28;20064;-74
2022/11/19 01:17:41;;;;;;;15.32;8.15;;;;;;;;;;5078951;28;20040;-74
2022/11/19 01:20:08;;;;;;;13.02;7.78;;;;;;;;;;5076755;28;20078;-75
2022/11/19 01:22:34;;;;;;;10.95;7.57;;;;;;;;;;5084743;28;20060;-74
2022/11/19 01:25:00;;;;;;;12.50;8.73;;;;;;;;;;5081914;28;20397;-74
2022/11/19 01:27:26;;;;;;;14.13;8.82;;;;;;;;;;5086694;28;20028;-74
2022/11/19 01:29:52;;;;;;;13.57;8.48;;;;;;;;;;5081579;28;20626;-74
2022/11/19 01:32:18;;;;;;;15.80;10.48;;;;;;;;;;5086238;28;20032;-74
2022/11/19 01:34:44;;;;;;;23.02;13.52;;;;;;;;;;5080445;28;20506;-74
2022/11/19 01:37:10;;;;;;;19.85;12.82;;;;;;;;;;5081572;28;20056;-74
2022/11/19 01:39:36;;;;;;;23.50;13.15;;;;;;;;;;5083129;28;20119;-74
2022/11/19 01:42:02;;;;;;;18.15;9.85;;;;;;;;;;5084009;28;20038;-74
2022/11/19 01:45:06;;;;;;;14.65;8.90;;;;;;;;;;5081062;28;20024;-74
2022/11/19 01:47:32;;;;;;;11.95;7.38;;;;;;;;;;5005337;28;20038;-74
2022/11/19 01:49:59;;;;;;;12.23;7.65;;;;;;;;;;5004936;28;20034;-74
2022/11/19 01:52:25;;;;;;;13.05;7.60;;;;;;;;;;5048173;28;20040;-74
2022/11/19 01:54:53;;;;;;;15.90;8.38;;;;;;;;;;5081351;28;20028;-74
2022/11/19 01:57:19;;;;;;;15.07;8.27;;;;;;;;;;5081626;28;20036;-74
2022/11/19 01:59:47;;;;;;;14.55;7.63;;;;;;;;;;5080475;28;20036;-74
2022/11/19 02:02:13;;;;;;;15.23;8.82;;;;;;;;;;5079392;28;20064;-74
2022/11/19 02:04:39;;;;;;;14.25;7.65;;;;;;;;;;5087889;28;20466;-74
2022/11/19 02:07:07;;;;;;;12.38;6.15;;;;;;;;;;5087184;28;20529;-74
2022/11/19 02:09:33;;;;;;;10.85;5.00;;;;;;;;;;5078670;28;20027;-74
2022/11/19 02:11:59;;;;;;;10.40;5.47;;;;;;;;;;5081571;28;20039;-74
2022/11/19 02:14:32;;;;;;;13.50;8.30;;;;;;;;;;5082021;28;20032;-74
2022/11/19 02:17:05;;;;;;;11.18;6.60;;;;;;;;;;5078829;28;20024;-74
2022/11/19 02:19:41;;;;;;;12.23;7.43;;;;;;;;;;5086089;28;20038;-74
2022/11/19 02:22:25;;;;;;;13.70;7.70;;;;;;;;;;5084522;28;20032;-74
2022/11/19 02:24:51;;;;;;;13.80;7.63;;;;;;;;;;5078761;28;20036;-74
2022/11/19 02:27:23;;;;;;;18.73;12.90;;;;;;;;;;5076191;28;20028;-74
2022/11/19 02:29:59;;;;;;;17.13;12.18;;;;;;;;;;5081536;28;20081;-74
2022/11/19 02:32:36;;;;;;;11.88;7.35;;;;;;;;;;5077698;28;20035;-74
2022/11/19 02:35:17;;;;;;;10.40;6.30;;;;;;;;;;5078919;28;20476;-74
2022/11/19 02:37:46;;;;;;;10.70;6.22;;;;;;;;;;5086534;28;20118;-74
2022/11/19 02:40:17;;;;;;;11.82;6.93;;;;;;;;;;5081499;28;20028;-74
2022/11/19 02:43:02;;;;;;;10.95;6.45;;;;;;;;;;5083867;28;20589;-74
2022/11/19 02:45:32;;;;;;;12.55;6.18;;;;;;;;;;5084756;28;20031;-74
2022/11/19 02:48:00;;;;;;;10.45;5.68;;;;;;;;;;5084109;28;20045;-74
2022/11/19 02:50:29;;;;;;;13.27;5.82;;;;;;;;;;5092185;28;20024;-74
2022/11/19 02:52:56;;;;;;;17.00;10.05;;;;;;;;;;5082612;28;20036;-74
2022/11/19 02:55:22;;;;;;;10.48;6.93;;;;;;;;;;5079681;28;20032;-74
2022/11/19 02:57:55;;;;;;;11.48;6.45;;;;;;;;;;5065711;28;20705;-75
2022/11/19 03:06:00;;;;;;;11.38;6.25;;;;;;;;;;5080238;28;20531;-74
2022/11/19 03:08:26;;;;;;;10.90;5.10;;;;;;;;;;5082478;28;20433;-74
2022/11/19 03:11:03;;;;;;;11.43;6.00;;;;;;;;;;5076367;28;20025;-74
2022/11/19 03:16:40;;;;;;;14.13;8.02;;;;;;;;;;5077123;28;20078;-74
2022/11/19 03:19:32;;;;;;;12.98;7.80;;;;;;;;;;5070774;28;20090;-74
2022/11/19 03:22:01;;;;;;;11.70;6.28;;;;;;;;;;5085214;28;20485;-74
2022/11/19 03:24:30;;;;;;;11.43;5.55;;;;;;;;;;5081533;28;20028;-74
2022/11/19 03:27:04;;;;;;;10.43;5.68;;;;;;;;;;5078471;28;20036;-74
2022/11/19 03:29:32;;;;;;;10.20;4.90;;;;;;;;;;5086556;28;20039;-74
2022/11/19 03:32:01;;;;;;;7.80;5.22;;;;;;;;;;5085406;28;20031;-74
2022/11/19 03:34:29;;;;;;;14.00;7.05;;;;;;;;;;5090288;28;20020;-74
2022/11/19 03:36:57;;;;;;;12.40;7.35;;;;;;;;;;5082905;28;20035;-74
2022/11/19 03:39:24;;;;;;;13.05;6.95;;;;;;;;;;5084997;28;20024;-74
2022/11/19 03:41:51;;;;;;;12.18;7.50;;;;;;;;;;5087151;28;20388;-74
2022/11/19 03:44:17;;;;;;;8.98;5.53;;;;;;;;;;5081174;28;20044;-74
2022/11/19 03:46:43;;;;;;;9.52;5.30;;;;;;;;;;5085794;28;20043;-74
2022/11/19 03:49:10;;;;;;;10.57;5.80;;;;;;;;;;5082705;28;20051;-74
2022/11/19 03:51:40;;;;;;;8.63;5.80;;;;;;;;;;5093760;28;20592;-74
2022/11/19 03:54:07;;;;;;;11.98;6.38;;;;;;;;;;5086399;28;20028;-74
2022/11/19 03:56:34;;;;;;;10.88;6.22;;;;;;;;;;5085183;28;20028;-74
2022/11/19 03:59:00;;;;;;;10.90;6.38;;;;;;;;;;5086289;28;20032;-74
2022/11/19 04:01:26;;;;;;;11.70;6.65;;;;;;;;;;5093684;28;20518;-74
2022/11/19 04:06:37;;;;;;;14.25;10.15;;;;;;;;;;5088092;28;20089;-74
2022/11/19 04:09:03;;;;;;;13.57;8.55;;;;;;;;;;5080471;28;20380;-74
2022/11/19 04:11:29;;;;;;;15.32;7.45;;;;;;;;;;5082838;28;20028;-74
2022/11/19 04:13:55;;;;;;;12.80;7.60;;;;;;;;;;5087976;28;20050;-74
2022/11/19 04:16:21;;;;;;;12.65;7.63;;;;;;;;;;5087582;28;20081;-74
2022/11/19 04:18:47;;;;;;;12.32;6.50;;;;;;;;;;5087904;28;20397;-74
2022/11/19 04:21:13;;;;;;;9.02;3.85;;;;;;;;;;5086328;28;20039;-74
2022/11/19 04:23:39;;;;;;;6.10;3.30;;;;;;;;;;5085096;28;20141;-74
2022/11/19 04:26:05;;;;;;;6.90;3.42;;;;;;;;;;5083626;28;20074;-74
2022/11/19 04:28:31;;;;;;;7.03;3.88;;;;;;;;;;5089655;28;20024;-74
2022/11/19 04:30:56;;;;;;;8.15;3.40;;;;;;;;;;5086741;28;20089;-74
2022/11/19 04:33:22;;;;;;;11.48;5.15;;;;;;;;;;5083433;28;20039;-74
2022/11/19 04:35:48;;;;;;;12.35;5.95;;;;;;;;;;5092088;28;20478;-74
2022/11/19 04:38:14;;;;;;;10.63;5.57;;;;;;;;;;5080572;28;20040;-74
2022/11/19 04:40:41;;;;;;;15.73;8.65;;;;;;;;;;5084090;28;20063;-74
2022/11/19 04:43:07;;;;;;;14.27;7.00;;;;;;;;;;5079205;28;20484;-74
2022/11/19 04:45:33;;;;;;;11.55;7.50;;;;;;;;;;5089821;28;20036;-74
2022/11/19 04:47:59;;;;;;;11.27;5.63;;;;;;;;;;5089561;28;20077;-74
2022/11/19 04:50:25;;;;;;;11.25;4.65;;;;;;;;;;5082158;28;20077;-74
2022/11/19 04:52:51;;;;;;;6.93;4.63;;;;;;;;;;5086042;28;20427;-74
2022/11/19 04:55:17;;;;;;;5.40;3.03;;;;;;;;;;5084292;28;20039;-74
2022/11/19 04:57:43;;;;;;;9.65;4.05;;;;;;;;;;5089700;28;20042;-74
2022/11/19 05:00:09;;;;;;;9.52;4.25;;;;;;;;;;5083989;28;20547;-74
2022/11/19 05:02:35;;;;;;;8.82;3.75;;;;;;;;;;5084948;28;20079;-74
2022/11/19 05:05:01;;;;;;;8.02;4.22;;;;;;;;;;5080930;28;20043;-74
2022/11/19 05:07:27;;;;;;;7.70;3.90;;;;;;;;;;5083420;28;20420;-74
2022/11/19 05:09:53;;;;;;;8.52;4.53;;;;;;;;;;5085239;28;20032;-74
2022/11/19 05:12:19;;;;;;;18.77;7.78;;;;;;;;;;5092255;28;20517;-74
2022/11/19 05:14:45;;;;;;;10.45;5.95;;;;;;;;;;5080862;28;20435;-74
2022/11/19 05:17:11;;;;;;;13.30;6.32;;;;;;;;;;5088268;28;20522;-74
2022/11/19 05:19:37;;;;;;;12.40;5.25;;;;;;;;;;5084488;28;20040;-74
2022/11/19 05:22:03;;;;;;;10.40;5.72;;;;;;;;;;5090718;28;20028;-75
2022/11/19 05:24:29;;;;;;;11.60;7.03;;;;;;;;;;5083972;28;20039;-74
2022/11/19 05:26:55;;;;;;;8.30;4.45;;;;;;;;;;5077197;28;20036;-74
2022/11/19 05:29:21;;;;;;;13.57;5.30;;;;;;;;;;5088093;28;20036;-74
2022/11/19 05:31:47;;;;;;;7.38;3.55;;;;;;;;;;5070305;28;20046;-74
2022/11/19 05:34:13;;;;;;;10.02;4.85;;;;;;;;;;5081862;28;20074;-74
2022/11/19 05:36:39;;;;;;;12.95;6.20;;;;;;;;;;5085908;28;20023;-75
2022/11/19 05:39:05;;;;;;;11.65;5.88;;;;;;;;;;5078852;28;20041;-74
2022/11/19 05:41:31;;;;;;;9.15;4.03;;;;;;;;;;5089937;28;20034;-74
2022/11/19 05:43:57;;;;;;;9.52;4.57;;;;;;;;;;5082280;28;20044;-74
2022/11/19 05:46:23;;;;;;;9.40;5.00;;;;;;;;;;5081846;28;20035;-74
2022/11/19 05:48:49;;;;;;;7.75;5.05;;;;;;;;;;5080819;28;20031;-74
2022/11/19 05:51:15;;;;;;;10.15;5.47;;;;;;;;;;5070942;28;20032;-74
2022/11/19 05:53:42;;;;;;;7.78;4.47;;;;;;;;;;5090603;28;20119;-74
2022/11/19 05:56:08;;;;;;;8.25;4.13;;;;;;;;;;5081823;28;20036;-74
2022/11/19 05:58:34;;;;;;;11.02;5.85;;;;;;;;;;5086001;28;20046;-74
2022/11/19 06:01:00;;;;;;;9.35;5.35;;;;;;;;;;5085496;28;20036;-74
2022/11/19 06:03:26;;;;;;;13.82;7.53;;;;;;;;;;5079416;28;20086;-74
2022/11/19 06:05:52;;;;;;;12.32;6.38;;;;;;;;;;5076434;28;20558;-74
2022/11/19 06:08:18;;;;;;;10.35;6.40;;;;;;;;;;5079609;28;20059;-74
2022/11/19 06:10:44;;;;;;;9.55;5.32;;;;;;;;;;5073496;28;20107;-74
2022/11/19 06:13:10;;;;;;;7.70;4.00;;;;;;;;;;5077063;28;20454;-74
2022/11/19 06:15:36;;;;;;;10.68;5.85;;;;;;;;;;5083449;28;20036;-74
2022/11/19 06:18:03;;;;;;;9.43;5.65;;;;;;;;;;5099847;28;20046;-74
2022/11/19 06:20:29;;;;;;;13.52;8.20;;;;;;;;;;5075995;28;20803;-74
2022/11/19 06:22:55;;;;;;;8.80;4.32;;;;;;;;;;5075415;28;20059;-74
2022/11/19 06:25:21;;;;;;;5.45;2.90;;;;;;;;;;5081329;28;20040;-74
2022/11/19 06:27:47;;;;;;;10.15;4.70;;;;;;;;;;5077986;28;20082;-74
2022/11/19 06:30:13;;;;;;;11.98;7.13;;;;;;;;;;5078646;28;20765;-74
2022/11/19 06:32:39;;;;;;;10.60;5.35;;;;;;;;;;5078608;28;20103;-74
2022/11/19 06:35:05;;;;;;;9.77;4.55;;;;;;;;;;5076551;28;20380;-74
2022/11/19 06:37:31;;;;;;;10.50;4.63;;;;;;;;;;5076035;28;20482;-74
2022/11/19 06:39:57;;;;;;;7.68;3.78;;;;;;;;;;5072782;28;20024;-74
2022/11/19 06:42:36;;;;;;;8.20;3.88;;;;;;;;;;5079101;28;20059;-74
2022/11/19 06:45:12;;;;;;;8.63;4.40;;;;;;;;;;5085672;28;20032;-74
2022/11/19 06:47:39;;;;;;;10.80;4.78;;;;;;;;;;5083029;28;20420;-74
2022/11/19 06:50:06;;;;;;;8.75;5.25;;;;;;;;;;5082599;28;20032;-74
2022/11/19 06:52:32;;;;;;;7.47;4.00;;;;;;;;;;5077929;28;20064;-74
2022/11/19 06:54:58;;;;;;;11.35;5.40;;;;;;;;;;5079489;28;20058;-74
2022/11/19 06:57:24;;;;;;;12.57;4.50;;;;;;;;;;5086169;28;20032;-73
2022/11/19 06:59:50;;;;;;;7.35;4.45;;;;;;;;;;5061522;28;20024;-74
2022/11/19 07:02:16;;;;;;;7.85;4.32;;;;;;;;;;5079236;28;20393;-74
2022/11/19 07:04:42;;;;;;;7.57;4.20;;;;;;;;;;5073588;28;20028;-74
2022/11/19 07:07:09;;;;;;;7.95;4.38;;;;;;;;;;5078924;28;20052;-74
2022/11/19 07:09:35;;;;;;;9.05;5.10;;;;;;;;;;5071715;28;20386;-74
2022/11/19 07:12:01;;;;;;;7.95;5.07;;;;;;;;;;5082739;28;20705;-74
2022/11/19 07:14:27;;;;;;;9.02;5.43;;;;;;;;;;5083760;28;20032;-74
2022/11/19 07:16:53;;;;;;;12.13;5.93;;;;;;;;;;5076926;28;20032;-74
2022/11/19 07:19:19;;;;;;;14.77;6.45;;;;;;;;;;5075488;28;20037;-74
2022/11/19 07:21:45;;;;;;;15.60;5.93;;;;;;;;;;5081402;28;20365;-74
2022/11/19 07:24:11;;;;;;;13.07;6.05;;;;;;;;;;5082641;28;20043;-74
2022/11/19 07:26:37;;;;;;;11.10;7.13;;;;;;;;;;5080371;28;20095;-74
2022/11/19 07:29:05;;;;;;;10.85;7.03;;;;;;;;;;5086991;28;20079;-74
2022/11/19 07:31:32;;;;;;;34.58;10.57;;;;;;;;;;5085210;28;20040;-75
2022/11/19 07:33:58;;;;;;;79.60;16.05;;;;;;;;;;5073597;28;20654;-75
2022/11/19 07:36:24;;;;;;;72.10;16.58;;;;;;;;;;5080960;28;20040;-74
2022/11/19 07:38:51;;;;;;;57.33;14.20;;;;;;;;;;5082582;28;20106;-74
2022/11/19 07:44:02;;;;;;;58.13;14.73;;;;;;;;;;5074274;28;20132;-74
2022/11/19 07:46:28;;;;;;;58.90;14.88;;;;;;;;;;5081936;28;20027;-74
2022/11/19 07:48:55;;;;;;;30.83;8.85;;;;;;;;;;5083493;28;20024;-75
2022/11/19 07:51:21;;;;;;;28.17;7.65;;;;;;;;;;5081760;28;20565;-75
2022/11/19 07:53:48;;;;;;;16.55;7.57;;;;;;;;;;5081444;28;20051;-75
2022/11/19 07:56:14;;;;;;;22.65;7.22;;;;;;;;;;5079601;28;20064;-75
2022/11/19 07:58:40;;;;;;;16.73;7.20;;;;;;;;;;5080047;28;20032;-74
2022/11/19 08:01:07;;;;;;;7.13;4.35;;;;;;;;;;5078301;28;20039;-75
2022/11/19 08:03:33;;;;;;;7.97;4.53;;;;;;;;;;5080324;28;20081;-74
2022/11/19 08:06:01;;;;;;;10.55;4.05;;;;;;;;;;5078353;28;20052;-74
2022/11/19 08:08:27;;;;;;;7.90;3.08;;;;;;;;;;5083716;28;20051;-74
2022/11/19 08:10:53;;;;;;;7.43;3.10;;;;;;;;;;5083300;28;20097;-74
2022/11/19 08:13:19;;;;;;;7.43;3.55;;;;;;;;;;5079080;28;20035;-74
2022/11/19 08:15:45;;;;;;;9.85;3.80;;;;;;;;;;5076970;28;20414;-74
2022/11/19 08:18:12;;;;;;;7.65;3.67;;;;;;;;;;5081350;28;20484;-74
2022/11/19 08:20:42;;;;;;;8.02;4.18;;;;;;;;;;5083814;28;20036;-74
2022/11/19 08:23:08;;;;;;;10.93;5.28;;;;;;;;;;5087104;28;20560;-75
2022/11/19 08:25:34;;;;;;;17.42;9.60;;;;;;;;;;5081400;28;20482;-74
2022/11/19 08:28:01;;;;;;;22.42;9.80;;;;;;;;;;5085196;28;20161;-74
2022/11/19 08:30:27;;;;;;;18.05;10.25;;;;;;;;;;5080301;28;20043;-74
2022/11/19 08:32:53;;;;;;;19.30;11.02;;;;;;;;;;5083299;28;20024;-75
2022/11/19 08:35:19;;;;;;;17.58;11.32;;;;;;;;;;5080676;28;20991;-74
2022/11/19 08:37:46;;;;;;;15.13;9.65;;;;;;;;;;5083151;28;20460;-74
2022/11/19 08:40:12;;;;;;;20.75;10.00;;;;;;;;;;5085495;28;20380;-74
2022/11/19 08:45:23;;;;;;;17.35;10.23;;;;;;;;;;5084497;28;20039;-74
2022/11/19 08:47:49;;;;;;;22.50;9.88;;;;;;;;;;5078846;28;20484;-75
2022/11/19 08:50:15;;;;;;;15.48;7.95;;;;;;;;;;5076538;28;20025;-74
2022/11/19 08:52:41;;;;;;;18.73;9.63;;;;;;;;;;5086099;28;20032;-74
2022/11/19 08:55:07;;;;;;;19.25;10.02;;;;;;;;;;5085333;28;20043;-74
2022/11/19 08:57:33;;;;;;;27.02;8.52;;;;;;;;;;5086059;28;20067;-74
2022/11/19 08:59:59;;;;;;;22.63;5.60;;;;;;;;;;5075364;28;20059;-74
2022/11/19 09:02:25;;;;;;;12.73;4.30;;;;;;;;;;5090865;28;20028;-74
2022/11/19 09:04:51;;;;;;;13.73;4.43;;;;;;;;;;5082134;28;20028;-74
2022/11/19 09:07:17;;;;;;;11.20;5.35;;;;;;;;;;5086177;28;20390;-74
2022/11/19 09:09:43;;;;;;;9.25;5.53;;;;;;;;;;5083060;28;20063;-74
2022/11/19 09:12:09;;;;;;;20.15;13.73;;;;;;;;;;5078569;28;20052;-74
2022/11/19 09:14:35;;;;;;;15.40;10.55;;;;;;;;;;5082247;28;20644;-74
2022/11/19 09:17:01;;;;;;;15.27;9.93;;;;;;;;;;5064921;28;20037;-74
2022/11/19 09:19:27;;;;;;;19.52;9.43;;;;;;;;;;5086231;28;20126;-74
2022/11/19 09:21:53;;;;;;;14.80;8.68;;;;;;;;;;5085678;28;20035;-74
2022/11/19 09:24:19;;;;;;;13.25;7.68;;;;;;;;;;5064089;28;20514;-74
2022/11/19 09:26:45;;;;;;;14.63;7.32;;;;;;;;;;5083547;28;20036;-75
2022/11/19 09:29:11;;;;;;;10.88;6.53;;;;;;;;;;5079943;28;20036;-74
2022/11/19 09:31:37;;;;;;;10.32;6.35;;;;;;;;;;5078505;28;20024;-74
2022/11/19 09:34:03;;;;;;;11.57;7.03;;;;;;;;;;5083147;28;20036;-74
2022/11/19 09:36:29;;;;;;;12.00;6.72;;;;;;;;;;5080264;28;20439;-75
2022/11/19 09:38:56;;;;;;;17.00;8.10;;;;;;;;;;5082299;28;20045;-74
2022/11/19 09:41:42;;;;;;;16.25;8.70;;;;;;;;;;5081329;28;20402;-75
2022/11/19 09:44:27;;;;;;;15.13;8.40;;;;;;;;;;5079552;28;20051;-75
2022/11/19 09:46:55;;;;;;;19.13;9.48;;;;;;;;;;5083438;28;20031;-75
2022/11/19 09:49:26;;;;;;;15.45;8.88;;;;;;;;;;5081490;28;20034;-75
2022/11/19 09:51:55;;;;;;;13.57;8.02;;;;;;;;;;5078520;28;20027;-75
2022/11/19 09:54:22;;;;;;;11.00;6.07;;;;;;;;;;5081736;28;20028;-75
2022/11/19 09:56:49;;;;;;;10.00;5.63;;;;;;;;;;5084196;28;20025;-75
2022/11/19 09:59:33;;;;;;;11.80;5.15;;;;;;;;;;5078777;28;20036;-75
2022/11/19 10:01:59;;;;;;;9.18;4.10;;;;;;;;;;5075748;28;20024;-75
2022/11/19 10:04:26;;;;;;;12.85;5.05;;;;;;;;;;5076746;28;20426;-75
2022/11/19 10:07:02;;;;;;;7.65;3.60;;;;;;;;;;5086670;28;20580;-75
2022/11/19 10:09:28;;;;;;;7.65;3.90;;;;;;;;;;5078640;28;20882;-75
2022/11/19 10:11:54;;;;;;;10.25;3.67;;;;;;;;;;5077810;28;20021;-75
2022/11/19 10:14:29;;;;;;;6.28;2.88;;;;;;;;;;5080961;28;20078;-74
2022/11/19 10:17:15;;;;;;;8.77;3.60;;;;;;;;;;5078205;28;20507;-75
2022/11/19 10:19:47;;;;;;;8.20;4.40;;;;;;;;;;5082657;28;20032;-75
2022/11/19 10:22:32;;;;;;;17.30;9.15;;;;;;;;;;5084943;28;20032;-75
2022/11/19 10:25:10;;;;;;;21.95;12.30;;;;;;;;;;5074743;28;20059;-75
2022/11/19 10:27:46;;;;;;;22.17;10.07;;;;;;;;;;5074540;28;20039;-75
2022/11/19 10:30:14;;;;;;;14.93;7.07;;;;;;;;;;5073175;28;20047;-75
2022/11/19 10:32:52;;;;;;;7.97;4.15;;;;;;;;;;5084469;28;20035;-74
2022/11/19 10:35:21;;;;;;;6.88;2.13;;;;;;;;;;5079918;28;20037;-75
2022/11/19 10:37:53;;;;;;;7.60;2.25;;;;;;;;;;5076611;28;20903;-75
2022/11/19 10:40:21;;;;;;;8.52;4.40;;;;;;;;;;5082224;28;20043;-75
2022/11/19 10:42:50;;;;;;;12.43;5.65;;;;;;;;;;5076964;28;20532;-75
2022/11/19 10:45:23;;;;;;;14.60;5.50;;;;;;;;;;5080041;28;20064;-75
2022/11/19 10:47:55;;;;;;;7.50;4.32;;;;;;;;;;5075549;28;20035;-75
2022/11/19 10:50:22;;;;;;;9.48;4.50;;;;;;;;;;5077444;28;20035;-75
2022/11/19 10:52:54;;;;;;;9.63;5.30;;;;;;;;;;5082368;28;20024;-75
2022/11/19 10:55:25;;;;;;;10.80;5.95;;;;;;;;;;5084385;28;20070;-75
2022/11/19 10:57:53;;;;;;;8.65;3.50;;;;;;;;;;5074483;28;20609;-75
2022/11/19 11:00:19;;;;;;;7.78;2.60;;;;;;;;;;5084905;28;20059;-75
2022/11/19 11:02:47;;;;;;;7.30;2.80;;;;;;;;;;5076300;28;20071;-75
2022/11/19 11:05:14;;;;;;;5.57;2.35;;;;;;;;;;5072344;28;20686;-75
2022/11/19 11:07:46;;;;;;;6.82;3.15;;;;;;;;;;5081425;28;20111;-75
2022/11/19 11:10:26;;;;;;;5.88;2.40;;;;;;;;;;5083954;28;20063;-75
2022/11/19 11:15:48;;;;;;;5.93;2.00;;;;;;;;;;5079819;28;20055;-75
2022/11/19 11:18:14;;;;;;;7.25;2.10;;;;;;;;;;5082570;28;20028;-75
2022/11/19 11:20:50;;;;;;;7.05;3.33;;;;;;;;;;5080406;28;20519;-75
2022/11/19 11:23:18;;;;;;;3.90;1.73;;;;;;;;;;5078142;28;20036;-75
2022/11/19 11:25:52;;;;;;;6.20;1.73;;;;;;;;;;5081924;28;20032;-75
2022/11/19 11:28:19;;;;;;;5.75;1.50;;;;;;;;;;5083546;28;20551;-75
2022/11/19 11:31:11;;;;;;;3.70;0.80;;;;;;;;;;5077813;28;20029;-75
2022/11/19 11:33:56;;;;;;;4.35;0.70;;;;;;;;;;5072326;28;20036;-75
2022/11/19 11:36:26;;;;;;;5.03;0.75;;;;;;;;;;5074468;28;20032;-75
2022/11/19 11:38:54;;;;;;;2.55;0.70;;;;;;;;;;5076457;28;20035;-75
2022/11/19 11:41:21;;;;;;;3.65;1.00;;;;;;;;;;5080284;28;20032;-75
2022/11/19 11:44:00;;;;;;;4.53;0.88;;;;;;;;;;5081830;28;20547;-75
2022/11/19 11:46:34;;;;;;;2.47;0.68;;;;;;;;;;5078785;28;20115;-75
2022/11/19 11:49:00;;;;;;;3.05;0.90;;;;;;;;;;5077456;28;20107;-75
2022/11/19 11:51:27;;;;;;;3.22;0.80;;;;;;;;;;5086001;28;20090;-75
2022/11/19 11:54:04;;;;;;;2.97;0.88;;;;;;;;;;5087145;28;20611;-75
2022/11/19 11:56:30;;;;;;;3.75;1.15;;;;;;;;;;5086039;28;20037;-75
2022/11/19 11:59:13;;;;;;;2.50;1.00;;;;;;;;;;5085084;28;20447;-75
2022/11/19 12:01:40;;;;;;;2.92;1.08;;;;;;;;;;5088738;28;20040;-75
2022/11/19 12:04:10;;;;;;;3.45;1.25;;;;;;;;;;5085370;28;20040;-75
2022/11/19 12:06:44;;;;;;;3.65;1.27;;;;;;;;;;5085967;28;20464;-75
2022/11/19 12:09:13;;;;;;;5.57;1.40;;;;;;;;;;5081214;28;20056;-75
2022/11/19 12:11:55;;;;;;;3.83;1.20;;;;;;;;;;5077231;28;20458;-75
2022/11/19 12:14:35;;;;;;;5.50;1.10;;;;;;;;;;5078101;28;20048;-75
2022/11/19 12:17:04;;;;;;;2.90;1.00;;;;;;;;;;5084981;28;20060;-75
2022/11/19 12:19:47;;;;;;;4.65;1.13;;;;;;;;;;5081175;28;20037;-75
2022/11/19 12:22:13;;;;;;;3.85;1.27;;;;;;;;;;5083185;28;20035;-75
2022/11/19 12:24:56;;;;;;;2.38;1.05;;;;;;;;;;5087190;28;20042;-75
2022/11/19 12:27:22;;;;;;;3.20;1.05;;;;;;;;;;5081593;28;20038;-75
2022/11/19 12:29:55;;;;;;;3.17;1.20;;;;;;;;;;5083981;28;20025;-75
2022/11/19 12:32:27;;;;;;;4.75;1.75;;;;;;;;;;5087706;28;20028;-75
2022/11/19 12:35:12;;;;;;;3.67;1.30;;;;;;;;;;5082698;28;20032;-75
2022/11/19 12:37:50;;;;;;;3.20;1.20;;;;;;;;;;5086470;28;20028;-75
2022/11/19 12:40:28;;;;;;;3.70;1.45;;;;;;;;;;5079479;28;20039;-75
2022/11/19 12:43:03;;;;;;;3.72;1.45;;;;;;;;;;5086974;28;20028;-75
2022/11/19 12:45:49;;;;;;;4.95;1.50;;;;;;;;;;5083724;28;20468;-75
2022/11/19 12:48:15;;;;;;;4.45;1.98;;;;;;;;;;5079727;28;20028;-75
2022/11/19 12:50:50;;;;;;;4.22;2.03;;;;;;;;;;5085657;28;20670;-75
2022/11/19 12:53:22;;;;;;;6.95;2.55;;;;;;;;;;5079218;28;20031;-75
2022/11/19 12:55:48;;;;;;;5.65;1.95;;;;;;;;;;5081233;28;20078;-75
2022/11/19 12:58:31;;;;;;;9.02;2.15;;;;;;;;;;5077577;28;20032;-75
2022/11/19 13:01:01;;;;;;;4.70;1.40;;;;;;;;;;5081827;28;20056;-75
2022/11/19 13:03:34;;;;;;;6.75;1.60;;;;;;;;;;5083381;28;20098;-75
2022/11/19 13:06:02;;;;;;;6.38;1.42;;;;;;;;;;5082087;28;20184;-75
2022/11/19 13:08:34;;;;;;;3.55;1.42;;;;;;;;;;5079584;28;20059;-75
2022/11/19 13:11:18;;;;;;;3.60;1.55;;;;;;;;;;5083389;28;20032;-75
2022/11/19 13:13:47;;;;;;;3.83;1.58;;;;;;;;;;5077490;28;20347;-75
2022/11/19 13:16:15;;;;;;;4.47;1.98;;;;;;;;;;5083819;28;20571;-75
2022/11/19 13:18:43;;;;;;;4.57;1.70;;;;;;;;;;5083729;28;20523;-75
2022/11/19 13:21:32;;;;;;;4.65;1.30;;;;;;;;;;5081746;28;20036;-75
2022/11/19 13:24:02;;;;;;;5.10;1.80;;;;;;;;;;5074724;28;20506;-75
2022/11/19 13:26:32;;;;;;;4.93;1.50;;;;;;;;;;5084766;28;20032;-74
2022/11/19 13:28:58;;;;;;;6.50;1.75;;;;;;;;;;5084577;28;20055;-75
2022/11/19 13:31:38;;;;;;;9.15;3.20;;;;;;;;;;5078758;28;20062;-75
2022/11/19 13:34:23;;;;;;;8.43;4.05;;;;;;;;;;5082457;28;20036;-75
2022/11/19 13:37:00;;;;;;;9.20;3.70;;;;;;;;;;5075385;28;20036;-75
2022/11/19 13:39:39;;;;;;;31.83;16.52;;;;;;;;;;5086334;28;20040;-75
2022/11/19 13:44:50;;;;;;;19.00;10.95;;;;;;;;;;5086400;28;20054;-75
2022/11/19 13:47:40;;;;;;;11.35;6.10;;;;;;;;;;5074792;28;20059;-75
2022/11/19 13:50:11;;;;;;;9.35;5.25;;;;;;;;;;5036515;28;20040;-75
2022/11/19 13:52:55;;;;;;;7.15;4.07;;;;;;;;;;5081358;28;20643;-75
2022/11/19 13:55:32;;;;;;;6.38;3.67;;;;;;;;;;5084143;28;20034;-75
2022/11/19 13:58:07;;;;;;;6.07;2.83;;;;;;;;;;5085743;28;20493;-74
2022/11/19 14:00:33;;;;;;;5.82;2.88;;;;;;;;;;5079861;28;20029;-75
2022/11/19 14:03:11;;;;;;;7.90;3.63;;;;;;;;;;5076087;28;20212;-75
2022/11/19 14:05:44;;;;;;;7.63;3.10;;;;;;;;;;5085909;28;20043;-75
2022/11/19 14:08:23;;;;;;;9.80;3.53;;;;;;;;;;5080179;28;20032;-75
2022/11/19 14:11:08;;;;;;;6.65;4.07;;;;;;;;;;5079700;28;20390;-75
2022/11/19 14:13:43;;;;;;;8.18;4.25;;;;;;;;;;5082721;28;20032;-75
2022/11/19 14:27:28;;;;;;;4.47;1.90;;;;;;;;;;5080066;28;20051;-75
2022/11/19 14:30:17;;;;;;;5.40;2.22;;;;;;;;;;5084363;28;20020;-76
2022/11/19 14:32:47;;;;;;;8.07;3.30;;;;;;;;;;5072505;28;20054;-76
2022/11/19 14:35:16;;;;;;;8.43;3.25;;;;;;;;;;5088586;28;20027;-75
2022/11/19 14:37:47;;;;;;;8.85;2.90;;;;;;;;;;5089932;28;20090;-75
2022/11/19 14:40:16;;;;;;;8.50;2.22;;;;;;;;;;5078693;28;20358;-74
2022/11/19 14:46:03;;;;;;;4.32;1.95;;;;;;;;;;5080944;28;20039;-75
2022/11/19 14:48:30;;;;;;;8.20;2.30;;;;;;;;;;5079760;28;20039;-75
2022/11/19 14:51:13;;;;;;;5.68;2.70;;;;;;;;;;5081497;28;20509;-75
2022/11/19 14:53:50;;;;;;;12.77;6.20;;;;;;;;;;5082628;28;20085;-75
2022/11/19 14:56:19;;;;;;;14.15;6.75;;;;;;;;;;5075230;28;20040;-76
2022/11/19 14:58:53;;;;;;;11.93;5.47;;;;;;;;;;5075447;28;20040;-74
2022/11/19 15:01:21;;;;;;;14.10;7.97;;;;;;;;;;5078928;28;20044;-75
2022/11/19 15:03:58;;;;;;;24.02;13.88;;;;;;;;;;5082741;28;20541;-74
2022/11/19 15:06:25;;;;;;;39.65;23.48;;;;;;;;;;5077209;28;20072;-75
2022/11/19 15:08:52;;;;;;;33.35;20.48;;;;;;;;;;5080046;28;20032;-75
2022/11/19 15:11:19;;;;;;;21.50;15.25;;;;;;;;;;5080980;28;20031;-75
2022/11/19 15:13:45;;;;;;;23.10;14.98;;;;;;;;;;5079959;28;20032;-75
2022/11/19 15:16:24;;;;;;;26.05;14.10;;;;;;;;;;5081006;28;20864;-74
2022/11/19 15:18:50;;;;;;;20.30;13.25;;;;;;;;;;5083721;28;20039;-74
2022/11/19 15:21:35;;;;;;;22.17;15.30;;;;;;;;;;5074918;28;20036;-75
2022/11/19 15:24:25;;;;;;;22.63;14.57;;;;;;;;;;5077641;28;20036;-75
2022/11/19 15:26:57;;;;;;;21.42;12.60;;;;;;;;;;5082565;28;20454;-75